createdAt,value
2023-01-07T00:00:09.023Z,11.85
2023-01-07T00:05:39.882Z,10.00
2023-01-07T00:13:39.425Z,9.55
2023-01-07T00:16:46.167Z,9.48
2023-01-07T00:22:19.832Z,10.55
2023-01-07T00:25:25.807Z,10.90
2023-01-07T00:28:31.012Z,11.28
2023-01-07T00:31:39.554Z,10.90
2023-01-07T00:40:05.431Z,11.90
2023-01-07T00:43:14.842Z,11.48
2023-01-07T00:48:46.390Z,11.22
2023-01-07T00:54:20.955Z,12.30
2023-01-07T01:02:24.604Z,11.18
2023-01-07T01:07:55.761Z,10.75
2023-01-07T01:11:01.140Z,11.60
2023-01-07T01:16:33.600Z,10.25
2023-01-07T01:19:39.124Z,9.15
2023-01-07T01:25:11.359Z,11.33
2023-01-07T01:30:43.390Z,9.78
2023-01-07T01:36:21.784Z,9.23
2023-01-07T01:39:30.245Z,9.95
2023-01-07T01:42:38.744Z,9.58
2023-01-07T01:45:45.737Z,9.13
2023-01-07T01:48:51.750Z,8.75
2023-01-07T01:52:01.482Z,8.85
2023-01-07T01:57:33.637Z,9.85
2023-01-07T02:13:50.651Z,8.95
2023-01-07T02:17:10.028Z,8.40
2023-01-07T02:20:30.311Z,9.15
2023-01-07T02:24:09.567Z,6.85
2023-01-07T02:27:34.778Z,8.80
2023-01-07T02:31:02.431Z,8.55
2023-01-07T02:34:30.399Z,8.05
2023-01-07T02:42:49.365Z,9.20
2023-01-07T02:46:17.756Z,9.78
2023-01-07T02:49:27.885Z,9.95
2023-01-07T02:52:40.080Z,10.10
2023-01-07T02:59:08.162Z,8.85
2023-01-07T03:02:37.105Z,10.45
2023-01-07T03:06:02.579Z,11.10
2023-01-07T03:09:32.100Z,10.05
2023-01-07T03:12:53.302Z,9.68
2023-01-07T03:18:35.411Z,10.45
2023-01-07T03:21:43.419Z,10.35
2023-01-07T03:24:49.520Z,9.23
2023-01-07T03:35:38.151Z,9.43
2023-01-07T03:38:43.724Z,14.10
2023-01-07T03:44:15.904Z,12.10
2023-01-07T03:49:50.331Z,11.73
2023-01-07T03:55:21.761Z,10.60
2023-01-07T04:00:52.967Z,17.15
2023-01-07T04:06:25.436Z,13.70
2023-01-07T04:12:02.003Z,13.60
2023-01-07T04:17:37.274Z,15.50
2023-01-07T04:23:11.243Z,17.07
2023-01-07T04:28:44.207Z,20.90
2023-01-07T04:34:18.436Z,12.03
2023-01-07T04:37:23.770Z,15.60
2023-01-07T04:40:30.622Z,15.90
2023-01-07T04:43:36.057Z,15.65
2023-01-07T04:46:42.530Z,24.50
2023-01-07T04:49:47.773Z,14.98
2023-01-07T04:52:53.342Z,19.32
2023-01-07T04:56:00.644Z,19.57
2023-01-07T04:59:06.460Z,30.20
2023-01-07T05:04:38.259Z,19.00
2023-01-07T05:10:11.310Z,21.82
2023-01-07T05:15:47.751Z,29.75
2023-01-07T05:18:54.228Z,15.15
2023-01-07T05:22:00.835Z,14.73
2023-01-07T05:24:59.571Z,20.30
2023-01-07T05:30:31.322Z,16.17
2023-01-07T05:33:39.089Z,14.65
2023-01-07T05:39:11.366Z,18.35
2023-01-07T05:44:45.862Z,9.93
2023-01-07T05:50:16.894Z,10.48
2023-01-07T05:55:50.729Z,13.50
2023-01-07T06:01:22.139Z,12.37
2023-01-07T06:04:27.459Z,10.08
2023-01-07T06:10:00.800Z,25.12
2023-01-07T06:15:35.139Z,11.68
2023-01-07T06:18:40.509Z,11.85
2023-01-07T06:24:12.622Z,12.50
2023-01-07T06:29:44.491Z,18.12
2023-01-07T06:35:19.708Z,11.28
2023-01-07T06:40:55.198Z,14.20
2023-01-07T06:44:00.844Z,16.42
2023-01-07T06:49:32.910Z,13.03
2023-01-07T06:55:04.416Z,13.58
2023-01-07T07:00:36.368Z,13.13
2023-01-07T07:03:42.750Z,13.00
2023-01-07T07:11:41.369Z,11.68
2023-01-07T07:14:46.720Z,10.78
2023-01-07T07:17:52.085Z,13.32
2023-01-07T07:20:58.314Z,11.43
2023-01-07T07:24:03.280Z,21.57
2023-01-07T07:27:08.834Z,15.90
2023-01-07T07:32:40.661Z,15.20
2023-01-07T07:35:45.677Z,15.68
2023-01-07T07:38:51.854Z,20.23
2023-01-07T07:44:15.884Z,10.13
2023-01-07T07:47:20.913Z,9.00
2023-01-07T07:50:25.819Z,13.72
2023-01-07T07:53:32.232Z,11.15
2023-01-07T08:01:31.893Z,15.30
2023-01-07T08:04:41.579Z,16.30
2023-01-07T08:07:47.957Z,14.03
2023-01-07T08:13:21.115Z,16.15
2023-01-07T08:18:55.414Z,11.83
2023-01-07T08:27:00.955Z,9.60
2023-01-07T08:37:33.216Z,10.05
2023-01-07T08:40:38.849Z,7.12
2023-01-07T08:43:45.323Z,9.65
2023-01-07T08:49:20.283Z,17.73
2023-01-07T08:54:53.600Z,10.03
2023-01-07T08:57:59.454Z,10.72
2023-01-07T09:03:31.123Z,10.90
2023-01-07T09:09:04.739Z,12.50
2023-01-07T09:12:11.160Z,10.30
2023-01-07T09:15:16.789Z,10.10
2023-01-07T09:18:22.588Z,9.45
2023-01-07T09:21:29.040Z,7.72
2023-01-07T09:24:34.749Z,10.55
2023-01-07T09:27:40.426Z,9.18
2023-01-07T09:30:45.773Z,8.10
2023-01-07T09:33:51.877Z,8.20
2023-01-07T09:39:28.079Z,8.30
2023-01-07T09:47:31.846Z,9.68
2023-01-07T09:53:09.655Z,7.78
2023-01-07T09:58:42.982Z,13.00
2023-01-07T10:04:50.249Z,5.00
2023-01-07T10:08:31.119Z,5.72
2023-01-07T10:17:08.038Z,6.70
2023-01-07T10:20:23.970Z,6.30
2023-01-07T10:23:36.557Z,4.90
2023-01-07T10:29:18.492Z,7.00
2023-01-07T10:35:13.032Z,5.70
2023-01-07T10:41:05.079Z,6.20
2023-01-07T10:44:33.370Z,6.60
2023-01-07T10:47:54.937Z,7.10
2023-01-07T10:51:23.219Z,6.10
2023-01-07T10:57:28.493Z,7.42
2023-01-07T11:00:34.023Z,6.70
2023-01-07T11:03:40.844Z,5.42
2023-01-07T11:07:02.462Z,6.80
2023-01-07T11:10:08.171Z,14.80
2023-01-07T11:13:06.232Z,9.95
2023-01-07T11:16:18.829Z,6.62
2023-01-07T11:19:25.216Z,6.30
2023-01-07T11:22:42.785Z,27.40
2023-01-07T11:25:48.144Z,14.38
2023-01-07T11:28:56.937Z,7.58
2023-01-07T11:32:06.859Z,9.30
2023-01-07T11:35:17.706Z,7.65
2023-01-07T11:40:49.682Z,8.50
2023-01-07T11:46:29.875Z,10.43
2023-01-07T11:49:45.816Z,8.68
2023-01-07T11:55:48.079Z,7.00
2023-01-07T11:58:56.961Z,13.38
2023-01-07T12:02:05.945Z,9.45
2023-01-07T12:07:37.222Z,9.70
2023-01-07T12:13:09.589Z,7.22
2023-01-07T12:21:48.531Z,9.50
2023-01-07T12:25:34.493Z,5.33
2023-01-07T12:31:59.290Z,4.85
2023-01-07T12:35:24.543Z,6.00
2023-01-07T12:41:29.997Z,4.50
2023-01-07T12:44:36.486Z,5.47
2023-01-07T12:47:45.308Z,5.60
2023-01-07T12:50:57.539Z,6.85
2023-01-07T12:54:20.212Z,4.80
2023-01-07T13:00:19.877Z,5.28
2023-01-07T13:03:53.439Z,5.53
2023-01-07T13:07:09.604Z,5.80
2023-01-07T13:10:27.997Z,6.30
2023-01-07T13:13:53.095Z,6.05
2023-01-07T13:16:59.976Z,5.53
2023-01-07T13:20:05.334Z,5.37
2023-01-07T13:23:10.961Z,6.40
2023-01-07T13:26:27.205Z,5.80
2023-01-07T13:29:55.809Z,5.78
2023-01-07T13:33:28.193Z,5.30
2023-01-07T13:36:52.522Z,6.03
2023-01-07T13:43:09.227Z,6.42
2023-01-07T13:46:19.158Z,5.17
2023-01-07T13:49:42.126Z,5.20
2023-01-07T13:52:51.368Z,5.83
2023-01-07T13:55:58.237Z,6.60
2023-01-07T13:59:11.206Z,5.55
2023-01-07T14:07:38.993Z,6.10
2023-01-07T14:10:47.451Z,5.50
2023-01-07T14:14:46.872Z,6.00
2023-01-07T14:18:12.043Z,5.15
2023-01-07T14:21:45.271Z,6.08
2023-01-07T14:25:26.969Z,5.85
2023-01-07T14:29:05.278Z,5.72
2023-01-07T14:32:41.191Z,6.47
2023-01-07T14:35:52.363Z,6.45
2023-01-07T14:39:01.594Z,6.47
2023-01-07T14:45:11.597Z,8.95
2023-01-07T14:48:16.951Z,7.33
2023-01-07T14:51:35.278Z,6.42
2023-01-07T14:55:26.160Z,8.58
2023-01-07T14:58:58.946Z,7.60
2023-01-07T15:03:00.597Z,7.22
2023-01-07T15:06:41.062Z,6.60
2023-01-07T15:10:18.087Z,7.00
2023-01-07T15:13:49.597Z,8.08
2023-01-07T15:16:56.873Z,9.55
2023-01-07T15:20:03.544Z,10.45
2023-01-07T15:23:26.771Z,8.25
2023-01-07T15:32:39.510Z,6.90
2023-01-07T15:35:55.272Z,10.32
2023-01-07T15:39:04.465Z,8.70
2023-01-07T15:42:11.179Z,10.60
2023-01-07T15:45:16.254Z,7.37
2023-01-07T15:48:26.198Z,7.78
2023-01-07T15:51:32.443Z,10.35
2023-01-07T15:54:48.452Z,23.65
2023-01-07T15:57:54.026Z,32.70
2023-01-07T16:01:01.623Z,13.00
2023-01-07T16:04:14.902Z,8.50
2023-01-07T16:07:19.905Z,9.03
2023-01-07T16:10:46.580Z,9.30
2023-01-07T16:13:53.025Z,8.40
2023-01-07T16:16:59.698Z,6.67
2023-01-07T16:20:05.520Z,6.55
2023-01-07T16:23:16.704Z,6.30
2023-01-07T16:26:34.494Z,6.45
2023-01-07T16:29:42.704Z,6.60
2023-01-07T16:32:47.743Z,8.18
2023-01-07T16:35:53.115Z,6.92
2023-01-07T16:39:00.827Z,7.30
2023-01-07T16:42:24.571Z,6.53
2023-01-07T16:45:42.354Z,6.75
2023-01-07T16:48:48.545Z,5.20
2023-01-07T16:52:21.441Z,5.67
2023-01-07T16:55:47.886Z,7.22
2023-01-07T16:59:08.036Z,6.35
2023-01-07T17:02:29.497Z,4.97
2023-01-07T17:05:40.810Z,5.60
2023-01-07T17:08:46.429Z,6.10
2023-01-07T17:11:52.985Z,5.92
2023-01-07T17:15:01.171Z,6.35
2023-01-07T17:18:08.029Z,6.20
2023-01-07T17:21:14.820Z,8.10
2023-01-07T17:24:22.380Z,6.78
2023-01-07T17:27:36.336Z,6.65
2023-01-07T17:30:50.625Z,6.65
2023-01-07T17:33:57.379Z,7.62
2023-01-07T17:37:02.415Z,7.80
2023-01-07T17:40:09.131Z,7.12
2023-01-07T17:43:33.358Z,7.25
2023-01-07T17:46:39.363Z,7.28
2023-01-07T17:49:44.507Z,7.85
2023-01-07T17:52:50.664Z,7.62
2023-01-07T17:55:57.672Z,6.12
2023-01-07T17:59:02.777Z,6.78
2023-01-07T18:02:08.075Z,6.35
2023-01-07T18:05:15.435Z,6.85
2023-01-07T18:08:21.298Z,7.25
2023-01-07T18:11:40.659Z,7.37
2023-01-07T18:17:50.894Z,6.83
2023-01-07T18:20:56.291Z,6.92
2023-01-07T18:24:01.100Z,7.35
2023-01-07T18:27:05.956Z,8.23
2023-01-07T18:30:12.566Z,8.08
2023-01-07T18:33:22.304Z,6.67
2023-01-07T18:36:28.787Z,8.40
2023-01-07T18:39:33.634Z,8.03
2023-01-07T18:42:38.536Z,7.85
2023-01-07T18:45:43.622Z,9.45
2023-01-07T18:48:52.154Z,9.00
2023-01-07T18:51:58.708Z,9.10
2023-01-07T18:55:04.091Z,10.32
2023-01-07T18:58:11.131Z,8.30
2023-01-07T19:01:20.413Z,8.93
2023-01-07T19:04:26.851Z,8.43
2023-01-07T19:07:32.929Z,9.50
2023-01-07T19:10:39.674Z,7.90
2023-01-07T19:13:45.005Z,9.38
2023-01-07T19:16:51.369Z,9.95
2023-01-07T19:19:59.118Z,11.60
2023-01-07T19:23:06.794Z,11.35
2023-01-07T19:26:11.533Z,10.82
2023-01-07T19:29:17.300Z,9.10
2023-01-07T19:32:23.113Z,8.58
2023-01-07T19:35:28.660Z,8.88
2023-01-07T19:38:35.257Z,8.48
2023-01-07T19:41:42.162Z,11.57
2023-01-07T19:44:48.750Z,10.80
2023-01-07T19:47:55.211Z,11.80
2023-01-07T19:51:11.724Z,11.90
2023-01-07T19:54:17.793Z,10.50
2023-01-07T19:57:24.346Z,12.15
2023-01-07T20:00:29.930Z,10.43
2023-01-07T20:03:35.609Z,12.25
2023-01-07T20:06:45.037Z,11.73
2023-01-07T20:09:50.183Z,10.50
2023-01-07T20:12:56.407Z,9.68
2023-01-07T20:16:02.155Z,10.65
2023-01-07T20:19:08.759Z,9.85
2023-01-07T20:22:16.996Z,13.08
2023-01-07T20:25:23.811Z,12.18
2023-01-07T20:28:30.419Z,11.93
2023-01-07T20:31:37.248Z,10.45
2023-01-07T20:34:43.745Z,11.40
2023-01-07T20:37:50.690Z,11.93
2023-01-07T20:40:58.951Z,12.55
2023-01-07T20:44:09.356Z,12.63
2023-01-07T20:47:14.466Z,14.15
2023-01-07T20:50:21.800Z,13.45
2023-01-07T20:53:27.532Z,12.98
2023-01-07T20:56:36.585Z,14.28
2023-01-07T20:59:42.641Z,12.60
2023-01-07T21:02:48.969Z,12.50
2023-01-07T21:05:55.447Z,14.00
2023-01-07T21:09:01.752Z,12.68
2023-01-07T21:12:07.253Z,12.15
2023-01-07T21:15:13.140Z,11.48
2023-01-07T21:18:18.108Z,12.73
2023-01-07T21:21:33.837Z,12.47
2023-01-07T21:24:39.062Z,11.55
2023-01-07T21:27:45.466Z,10.30
2023-01-07T21:30:51.959Z,10.93
2023-01-07T21:33:58.106Z,10.68
2023-01-07T21:37:03.921Z,11.43
2023-01-07T21:40:09.479Z,10.08
2023-01-07T21:43:15.417Z,11.12
2023-01-07T21:46:21.171Z,9.45
2023-01-07T21:49:20.059Z,10.20
2023-01-07T21:52:11.934Z,11.48
2023-01-07T21:55:17.215Z,11.80
2023-01-07T21:58:15.810Z,12.37
2023-01-07T22:01:21.363Z,10.58
2023-01-07T22:04:27.854Z,11.90
2023-01-07T22:07:33.086Z,11.08
2023-01-07T22:10:38.630Z,11.90
2023-01-07T22:13:44.711Z,11.57
2023-01-07T22:16:50.935Z,11.50
2023-01-07T22:19:57.836Z,12.23
2023-01-07T22:23:03.529Z,11.35
2023-01-07T22:26:09.406Z,11.12
2023-01-07T22:29:15.901Z,13.05
2023-01-07T22:32:21.697Z,17.52
2023-01-07T22:35:26.751Z,17.92
2023-01-07T22:38:33.565Z,16.75
2023-01-07T22:41:40.309Z,14.30
2023-01-07T22:44:52.564Z,17.62
2023-01-07T22:47:59.203Z,23.05
2023-01-07T22:51:09.654Z,18.62
2023-01-07T22:54:15.609Z,16.75
2023-01-07T22:57:23.235Z,14.35
2023-01-07T23:00:53.013Z,12.35
2023-01-07T23:07:03.902Z,11.30
2023-01-07T23:10:10.421Z,10.85
2023-01-07T23:13:15.892Z,9.63
2023-01-07T23:16:22.988Z,11.05
2023-01-07T23:19:30.832Z,12.60
2023-01-07T23:22:36.551Z,12.37
2023-01-07T23:25:44.787Z,10.95
2023-01-07T23:28:50.202Z,12.85
2023-01-07T23:31:56.168Z,11.08
2023-01-07T23:35:02.678Z,12.00
2023-01-07T23:38:08.037Z,12.65
2023-01-07T23:41:17.783Z,12.23
2023-01-07T23:44:24.842Z,12.73
2023-01-07T23:47:31.707Z,12.23
2023-01-07T23:50:37.679Z,24.05
2023-01-07T23:53:44.038Z,17.27
2023-01-07T23:56:49.347Z,13.65
2023-01-07T23:59:55.637Z,14.63
